sensor_id;sensor_type;location;lat;lon;timestamp;P1;durP1;ratioP1;P2;durP2;ratioP2
4313;SDS011;2170;48.794;9.182;2023-07-31T00:29:33;3.73;;;1.93;;
4313;SDS011;2170;48.794;9.182;2023-07-31T00:32:43;2.17;;;1.90;;
4313;SDS011;2170;48.794;9.182;2023-07-31T00:36:21;3.20;;;2.27;;
4313;SDS011;2170;48.794;9.182;2023-07-31T00:39:12;2.60;;;2.40;;
4313;SDS011;2170;48.794;9.182;2023-07-31T00:42:14;2.50;;;2.30;;
4313;SDS011;2170;48.794;9.182;2023-07-31T00:48:47;2.23;;;2.00;;
4313;SDS011;2170;48.794;9.182;2023-07-31T00:54:49;4.63;;;2.20;;
4313;SDS011;2170;48.794;9.182;2023-07-31T00:57:53;2.53;;;2.33;;
4313;SDS011;2170;48.794;9.182;2023-07-31T01:00:38;2.33;;;2.13;;
4313;SDS011;2170;48.794;9.182;2023-07-31T01:03:29;5.60;;;3.10;;
4313;SDS011;2170;48.794;9.182;2023-07-31T01:06:34;12.07;;;3.27;;
4313;SDS011;2170;48.794;9.182;2023-07-31T01:09:44;2.03;;;1.83;;
4313;SDS011;2170;48.794;9.182;2023-07-31T01:12:32;2.50;;;2.30;;
4313;SDS011;2170;48.794;9.182;2023-07-31T01:15:31;3.10;;;2.60;;
4313;SDS011;2170;48.794;9.182;2023-07-31T01:18:16;6.37;;;3.00;;
4313;SDS011;2170;48.794;9.182;2023-07-31T01:21:17;4.80;;;2.50;;
4313;SDS011;2170;48.794;9.182;2023-07-31T01:24:32;2.43;;;2.20;;
4313;SDS011;2170;48.794;9.182;2023-07-31T01:30:52;3.53;;;2.53;;
4313;SDS011;2170;48.794;9.182;2023-07-31T01:33:44;3.13;;;2.40;;
4313;SDS011;2170;48.794;9.182;2023-07-31T01:36:48;3.40;;;2.50;;
4313;SDS011;2170;48.794;9.182;2023-07-31T01:39:49;2.63;;;2.33;;
4313;SDS011;2170;48.794;9.182;2023-07-31T01:43:02;2.93;;;2.73;;
4313;SDS011;2170;48.794;9.182;2023-07-31T01:46:05;3.43;;;2.30;;
4313;SDS011;2170;48.794;9.182;2023-07-31T01:48:49;3.33;;;2.40;;
4313;SDS011;2170;48.794;9.182;2023-07-31T01:51:54;2.90;;;2.73;;
4313;SDS011;2170;48.794;9.182;2023-07-31T01:56:33;2.60;;;2.40;;
4313;SDS011;2170;48.794;9.182;2023-07-31T02:01:23;4.47;;;2.37;;
4313;SDS011;2170;48.794;9.182;2023-07-31T02:04:28;2.60;;;2.40;;
4313;SDS011;2170;48.794;9.182;2023-07-31T02:07:32;2.40;;;2.20;;
4313;SDS011;2170;48.794;9.182;2023-07-31T02:10:20;2.67;;;2.37;;
4313;SDS011;2170;48.794;9.182;2023-07-31T02:13:11;3.37;;;2.37;;
4313;SDS011;2170;48.794;9.182;2023-07-31T02:16:32;4.07;;;2.40;;
4313;SDS011;2170;48.794;9.182;2023-07-31T02:22:45;2.50;;;2.30;;
4313;SDS011;2170;48.794;9.182;2023-07-31T02:26:09;2.70;;;2.50;;
4313;SDS011;2170;48.794;9.182;2023-07-31T02:29:27;4.70;;;2.40;;
4313;SDS011;2170;48.794;9.182;2023-07-31T02:32:29;2.30;;;2.10;;
4313;SDS011;2170;48.794;9.182;2023-07-31T02:38:30;3.00;;;2.70;;
4313;SDS011;2170;48.794;9.182;2023-07-31T02:41:47;4.13;;;2.53;;
4313;SDS011;2170;48.794;9.182;2023-07-31T02:44:52;2.57;;;2.37;;
4313;SDS011;2170;48.794;9.182;2023-07-31T02:47:42;2.20;;;2.10;;
4313;SDS011;2170;48.794;9.182;2023-07-31T02:53:19;5.03;;;2.70;;
4313;SDS011;2170;48.794;9.182;2023-07-31T02:56:09;2.57;;;2.37;;
4313;SDS011;2170;48.794;9.182;2023-07-31T02:58:56;2.73;;;2.50;;
4313;SDS011;2170;48.794;9.182;2023-07-31T03:01:52;3.93;;;3.00;;
4313;SDS011;2170;48.794;9.182;2023-07-31T03:04:57;2.43;;;2.30;;
4313;SDS011;2170;48.794;9.182;2023-07-31T03:08:12;2.80;;;2.30;;
4313;SDS011;2170;48.794;9.182;2023-07-31T03:10:48;2.57;;;2.37;;
4313;SDS011;2170;48.794;9.182;2023-07-31T03:13:39;3.97;;;2.93;;
4313;SDS011;2170;48.794;9.182;2023-07-31T03:16:58;4.57;;;2.53;;
4313;SDS011;2170;48.794;9.182;2023-07-31T03:20:01;2.30;;;2.10;;
4313;SDS011;2170;48.794;9.182;2023-07-31T03:22:54;2.60;;;2.10;;
4313;SDS011;2170;48.794;9.182;2023-07-31T03:26:09;2.63;;;2.40;;
4313;SDS011;2170;48.794;9.182;2023-07-31T03:29:09;3.03;;;2.63;;
4313;SDS011;2170;48.794;9.182;2023-07-31T03:31:45;4.23;;;2.33;;
4313;SDS011;2170;48.794;9.182;2023-07-31T03:37:38;2.80;;;2.40;;
4313;SDS011;2170;48.794;9.182;2023-07-31T03:40:45;3.03;;;2.50;;
4313;SDS011;2170;48.794;9.182;2023-07-31T03:43:40;2.70;;;2.50;;
4313;SDS011;2170;48.794;9.182;2023-07-31T03:46:22;3.13;;;2.83;;
4313;SDS011;2170;48.794;9.182;2023-07-31T03:49:06;4.47;;;2.53;;
4313;SDS011;2170;48.794;9.182;2023-07-31T03:52:18;4.90;;;2.70;;
4313;SDS011;2170;48.794;9.182;2023-07-31T03:55:27;3.13;;;2.83;;
4313;SDS011;2170;48.794;9.182;2023-07-31T03:58:14;4.30;;;2.50;;
4313;SDS011;2170;48.794;9.182;2023-07-31T04:01:06;3.80;;;2.40;;
4313;SDS011;2170;48.794;9.182;2023-07-31T04:03:50;4.50;;;2.83;;
4313;SDS011;2170;48.794;9.182;2023-07-31T04:07:04;2.47;;;2.27;;
4313;SDS011;2170;48.794;9.182;2023-07-31T04:10:00;3.20;;;2.13;;
4313;SDS011;2170;48.794;9.182;2023-07-31T04:13:28;2.80;;;2.60;;
4313;SDS011;2170;48.794;9.182;2023-07-31T04:23:09;2.50;;;2.30;;
4313;SDS011;2170;48.794;9.182;2023-07-31T04:25:51;3.07;;;2.70;;
4313;SDS011;2170;48.794;9.182;2023-07-31T04:28:56;3.73;;;2.60;;
4313;SDS011;2170;48.794;9.182;2023-07-31T04:38:40;2.53;;;2.33;;
4313;SDS011;2170;48.794;9.182;2023-07-31T04:41:27;2.40;;;2.20;;
4313;SDS011;2170;48.794;9.182;2023-07-31T04:44:52;7.37;;;2.90;;
4313;SDS011;2170;48.794;9.182;2023-07-31T04:47:41;2.97;;;2.67;;
4313;SDS011;2170;48.794;9.182;2023-07-31T04:51:07;8.93;;;5.47;;
4313;SDS011;2170;48.794;9.182;2023-07-31T04:53:57;4.10;;;3.07;;
4313;SDS011;2170;48.794;9.182;2023-07-31T06:12:17;2.50;;;2.30;;
4313;SDS011;2170;48.794;9.182;2023-07-31T06:35:29;8.93;;;2.63;;
4313;SDS011;2170;48.794;9.182;2023-07-31T06:45:47;3.87;;;2.10;;
4313;SDS011;2170;48.794;9.182;2023-07-31T06:52:38;2.27;;;2.07;;
4313;SDS011;2170;48.794;9.182;2023-07-31T06:55:27;3.90;;;2.50;;
4313;SDS011;2170;48.794;9.182;2023-07-31T06:58:56;3.33;;;2.57;;
4313;SDS011;2170;48.794;9.182;2023-07-31T07:05:03;2.90;;;2.27;;
4313;SDS011;2170;48.794;9.182;2023-07-31T07:07:56;2.97;;;2.30;;
4313;SDS011;2170;48.794;9.182;2023-07-31T07:10:56;3.13;;;2.50;;
4313;SDS011;2170;48.794;9.182;2023-07-31T07:13:43;2.93;;;2.10;;
4313;SDS011;2170;48.794;9.182;2023-07-31T07:23:26;4.00;;;2.50;;
4313;SDS011;2170;48.794;9.182;2023-07-31T07:26:07;4.57;;;2.70;;
4313;SDS011;2170;48.794;9.182;2023-07-31T07:28:41;3.40;;;2.03;;
4313;SDS011;2170;48.794;9.182;2023-07-31T07:31:21;2.73;;;2.33;;
4313;SDS011;2170;48.794;9.182;2023-07-31T07:34:19;3.90;;;2.57;;
4313;SDS011;2170;48.794;9.182;2023-07-31T07:37:12;3.17;;;2.50;;
4313;SDS011;2170;48.794;9.182;2023-07-31T07:40:23;4.70;;;2.20;;
4313;SDS011;2170;48.794;9.182;2023-07-31T07:43:33;3.43;;;2.77;;
4313;SDS011;2170;48.794;9.182;2023-07-31T07:46:28;5.50;;;2.80;;
4313;SDS011;2170;48.794;9.182;2023-07-31T07:52:23;5.57;;;2.90;;
4313;SDS011;2170;48.794;9.182;2023-07-31T07:54:57;3.80;;;2.80;;
4313;SDS011;2170;48.794;9.182;2023-07-31T07:57:39;2.63;;;2.20;;
4313;SDS011;2170;48.794;9.182;2023-07-31T08:00:12;2.90;;;2.43;;
4313;SDS011;2170;48.794;9.182;2023-07-31T08:02:48;9.30;;;4.07;;
4313;SDS011;2170;48.794;9.182;2023-07-31T08:05:24;5.03;;;3.00;;
4313;SDS011;2170;48.794;9.182;2023-07-31T08:08:19;6.13;;;2.57;;
4313;SDS011;2170;48.794;9.182;2023-07-31T08:11:21;3.73;;;2.47;;
4313;SDS011;2170;48.794;9.182;2023-07-31T08:14:14;4.50;;;2.90;;
4313;SDS011;2170;48.794;9.182;2023-07-31T08:20:38;3.67;;;2.57;;
4313;SDS011;2170;48.794;9.182;2023-07-31T08:23:46;2.73;;;2.43;;
4313;SDS011;2170;48.794;9.182;2023-07-31T08:26:31;8.27;;;2.63;;
4313;SDS011;2170;48.794;9.182;2023-07-31T08:29:38;4.80;;;2.20;;
4313;SDS011;2170;48.794;9.182;2023-07-31T08:32:06;5.80;;;2.73;;
4313;SDS011;2170;48.794;9.182;2023-07-31T08:34:40;7.13;;;3.67;;
4313;SDS011;2170;48.794;9.182;2023-07-31T08:39:54;3.63;;;2.57;;
4313;SDS011;2170;48.794;9.182;2023-07-31T08:45:33;4.90;;;2.70;;
4313;SDS011;2170;48.794;9.182;2023-07-31T08:48:43;4.80;;;2.50;;
4313;SDS011;2170;48.794;9.182;2023-07-31T08:51:56;4.30;;;2.90;;
4313;SDS011;2170;48.794;9.182;2023-07-31T08:54:50;3.40;;;2.47;;
4313;SDS011;2170;48.794;9.182;2023-07-31T08:58:00;2.63;;;2.50;;
4313;SDS011;2170;48.794;9.182;2023-07-31T09:07:44;3.97;;;3.10;;
4313;SDS011;2170;48.794;9.182;2023-07-31T09:11:04;2.73;;;2.50;;
4313;SDS011;2170;48.794;9.182;2023-07-31T09:14:14;3.30;;;2.97;;
4313;SDS011;2170;48.794;9.182;2023-07-31T09:16:57;3.57;;;2.43;;
4313;SDS011;2170;48.794;9.182;2023-07-31T09:22:52;5.17;;;2.90;;
4313;SDS011;2170;48.794;9.182;2023-07-31T09:25:45;3.97;;;2.87;;
4313;SDS011;2170;48.794;9.182;2023-07-31T09:28:24;5.07;;;2.20;;
4313;SDS011;2170;48.794;9.182;2023-07-31T09:31:33;4.50;;;2.23;;
4313;SDS011;2170;48.794;9.182;2023-07-31T09:34:36;5.20;;;3.17;;
4313;SDS011;2170;48.794;9.182;2023-07-31T09:37:40;4.13;;;2.43;;
4313;SDS011;2170;48.794;9.182;2023-07-31T09:40:33;4.13;;;3.27;;
4313;SDS011;2170;48.794;9.182;2023-07-31T09:43:25;3.10;;;2.67;;
4313;SDS011;2170;48.794;9.182;2023-07-31T09:45:57;4.93;;;2.77;;
4313;SDS011;2170;48.794;9.182;2023-07-31T09:48:54;4.70;;;2.57;;
4313;SDS011;2170;48.794;9.182;2023-07-31T09:51:54;3.27;;;2.60;;
4313;SDS011;2170;48.794;9.182;2023-07-31T09:54:38;3.87;;;2.83;;
4313;SDS011;2170;48.794;9.182;2023-07-31T09:57:29;7.77;;;2.97;;
4313;SDS011;2170;48.794;9.182;2023-07-31T10:00:10;2.70;;;2.50;;
4313;SDS011;2170;48.794;9.182;2023-07-31T10:02:49;2.50;;;2.30;;
4313;SDS011;2170;48.794;9.182;2023-07-31T10:05:28;5.13;;;3.10;;
4313;SDS011;2170;48.794;9.182;2023-07-31T10:08:18;4.07;;;2.60;;
4313;SDS011;2170;48.794;9.182;2023-07-31T10:11:08;3.57;;;2.77;;
4313;SDS011;2170;48.794;9.182;2023-07-31T10:13:55;2.97;;;2.53;;
4313;SDS011;2170;48.794;9.182;2023-07-31T10:16:52;5.80;;;3.30;;
4313;SDS011;2170;48.794;9.182;2023-07-31T10:22:52;2.83;;;2.60;;
4313;SDS011;2170;48.794;9.182;2023-07-31T10:25:46;4.80;;;2.30;;
4313;SDS011;2170;48.794;9.182;2023-07-31T10:28:35;4.27;;;2.90;;
4313;SDS011;2170;48.794;9.182;2023-07-31T10:31:29;3.87;;;2.80;;
4313;SDS011;2170;48.794;9.182;2023-07-31T10:34:40;5.80;;;2.57;;
4313;SDS011;2170;48.794;9.182;2023-07-31T10:37:25;3.67;;;3.37;;
4313;SDS011;2170;48.794;9.182;2023-07-31T10:40:19;4.40;;;2.87;;
4313;SDS011;2170;48.794;9.182;2023-07-31T10:42:58;3.77;;;3.07;;
4313;SDS011;2170;48.794;9.182;2023-07-31T10:45:39;4.03;;;2.57;;
4313;SDS011;2170;48.794;9.182;2023-07-31T10:48:21;5.73;;;3.40;;
4313;SDS011;2170;48.794;9.182;2023-07-31T10:51:08;4.20;;;2.60;;
4313;SDS011;2170;48.794;9.182;2023-07-31T10:54:15;3.53;;;2.60;;
4313;SDS011;2170;48.794;9.182;2023-07-31T10:56:55;6.67;;;2.53;;
4313;SDS011;2170;48.794;9.182;2023-07-31T10:59:39;3.23;;;2.50;;
4313;SDS011;2170;48.794;9.182;2023-07-31T11:02:37;4.00;;;2.60;;
4313;SDS011;2170;48.794;9.182;2023-07-31T11:05:46;2.80;;;2.40;;
4313;SDS011;2170;48.794;9.182;2023-07-31T11:08:24;5.37;;;2.90;;
4313;SDS011;2170;48.794;9.182;2023-07-31T11:11:05;2.33;;;2.13;;
4313;SDS011;2170;48.794;9.182;2023-07-31T11:16:31;2.97;;;2.40;;
4313;SDS011;2170;48.794;9.182;2023-07-31T11:19:09;3.40;;;2.70;;
4313;SDS011;2170;48.794;9.182;2023-07-31T11:21:46;2.67;;;2.40;;
4313;SDS011;2170;48.794;9.182;2023-07-31T11:24:22;3.70;;;2.67;;
4313;SDS011;2170;48.794;9.182;2023-07-31T11:27:10;3.67;;;2.93;;
4313;SDS011;2170;48.794;9.182;2023-07-31T11:29:51;3.20;;;2.90;;
4313;SDS011;2170;48.794;9.182;2023-07-31T11:32:36;2.70;;;2.50;;
4313;SDS011;2170;48.794;9.182;2023-07-31T11:35:18;3.30;;;2.90;;
4313;SDS011;2170;48.794;9.182;2023-07-31T11:38:02;3.43;;;2.80;;
4313;SDS011;2170;48.794;9.182;2023-07-31T11:41:01;4.80;;;3.30;;
4313;SDS011;2170;48.794;9.182;2023-07-31T11:43:46;4.10;;;3.07;;
4313;SDS011;2170;48.794;9.182;2023-07-31T11:46:31;5.43;;;3.30;;
4313;SDS011;2170;48.794;9.182;2023-07-31T11:49:09;4.23;;;2.80;;
4313;SDS011;2170;48.794;9.182;2023-07-31T11:51:54;3.13;;;2.83;;
4313;SDS011;2170;48.794;9.182;2023-07-31T11:54:32;5.00;;;3.17;;
4313;SDS011;2170;48.794;9.182;2023-07-31T12:00:15;4.90;;;2.90;;
4313;SDS011;2170;48.794;9.182;2023-07-31T12:03:13;4.27;;;3.33;;
4313;SDS011;2170;48.794;9.182;2023-07-31T12:06:11;3.60;;;3.03;;
4313;SDS011;2170;48.794;9.182;2023-07-31T12:08:49;3.83;;;3.40;;
4313;SDS011;2170;48.794;9.182;2023-07-31T12:11:44;6.03;;;3.40;;
4313;SDS011;2170;48.794;9.182;2023-07-31T12:14:27;7.27;;;3.20;;
4313;SDS011;2170;48.794;9.182;2023-07-31T12:17:40;3.20;;;2.90;;
4313;SDS011;2170;48.794;9.182;2023-07-31T12:20:29;3.97;;;2.50;;
4313;SDS011;2170;48.794;9.182;2023-07-31T12:23:43;3.83;;;2.63;;
4313;SDS011;2170;48.794;9.182;2023-07-31T12:26:44;7.53;;;3.50;;
4313;SDS011;2170;48.794;9.182;2023-07-31T12:29:44;5.27;;;3.20;;
4313;SDS011;2170;48.794;9.182;2023-07-31T12:32:29;5.97;;;3.00;;
4313;SDS011;2170;48.794;9.182;2023-07-31T12:35:08;3.80;;;3.03;;
4313;SDS011;2170;48.794;9.182;2023-07-31T12:38:07;4.70;;;2.50;;
4313;SDS011;2170;48.794;9.182;2023-07-31T12:41:29;3.30;;;3.00;;
4313;SDS011;2170;48.794;9.182;2023-07-31T12:44:17;3.00;;;2.80;;
4313;SDS011;2170;48.794;9.182;2023-07-31T12:47:13;5.80;;;3.20;;
4313;SDS011;2170;48.794;9.182;2023-07-31T12:49:56;4.27;;;2.80;;
4313;SDS011;2170;48.794;9.182;2023-07-31T12:52:31;8.20;;;3.00;;
4313;SDS011;2170;48.794;9.182;2023-07-31T12:55:17;3.20;;;2.80;;
4313;SDS011;2170;48.794;9.182;2023-07-31T12:58:05;6.90;;;3.30;;
4313;SDS011;2170;48.794;9.182;2023-07-31T13:00:48;4.70;;;3.00;;
4313;SDS011;2170;48.794;9.182;2023-07-31T13:03:30;3.90;;;3.20;;
4313;SDS011;2170;48.794;9.182;2023-07-31T13:06:17;6.03;;;3.43;;
4313;SDS011;2170;48.794;9.182;2023-07-31T13:08:59;5.93;;;3.40;;
4313;SDS011;2170;48.794;9.182;2023-07-31T13:11:46;4.10;;;3.10;;
4313;SDS011;2170;48.794;9.182;2023-07-31T13:14:40;5.40;;;2.77;;
4313;SDS011;2170;48.794;9.182;2023-07-31T13:17:31;7.10;;;2.90;;
4313;SDS011;2170;48.794;9.182;2023-07-31T13:20:43;3.43;;;2.80;;
4313;SDS011;2170;48.794;9.182;2023-07-31T13:23:53;4.50;;;2.90;;
4313;SDS011;2170;48.794;9.182;2023-07-31T13:26:58;4.27;;;3.50;;
4313;SDS011;2170;48.794;9.182;2023-07-31T13:29:47;3.50;;;3.10;;
4313;SDS011;2170;48.794;9.182;2023-07-31T13:32:51;3.90;;;3.60;;
4313;SDS011;2170;48.794;9.182;2023-07-31T13:35:48;3.60;;;3.10;;
4313;SDS011;2170;48.794;9.182;2023-07-31T13:42:25;3.00;;;2.70;;
4313;SDS011;2170;48.794;9.182;2023-07-31T13:45:58;4.57;;;3.07;;
4313;SDS011;2170;48.794;9.182;2023-07-31T13:48:51;4.50;;;2.80;;
4313;SDS011;2170;48.794;9.182;2023-07-31T13:52:07;3.67;;;2.60;;
4313;SDS011;2170;48.794;9.182;2023-07-31T13:55:01;3.13;;;2.50;;
4313;SDS011;2170;48.794;9.182;2023-07-31T13:58:10;3.60;;;2.80;;
4313;SDS011;2170;48.794;9.182;2023-07-31T14:01:08;3.10;;;2.80;;
4313;SDS011;2170;48.794;9.182;2023-07-31T14:07:28;5.37;;;3.07;;
4313;SDS011;2170;48.794;9.182;2023-07-31T14:10:15;3.10;;;2.80;;
4313;SDS011;2170;48.794;9.182;2023-07-31T14:13:05;3.00;;;2.80;;
4313;SDS011;2170;48.794;9.182;2023-07-31T14:15:53;3.13;;;2.83;;
4313;SDS011;2170;48.794;9.182;2023-07-31T14:18:49;3.13;;;2.50;;
4313;SDS011;2170;48.794;9.182;2023-07-31T14:21:37;3.07;;;2.77;;
4313;SDS011;2170;48.794;9.182;2023-07-31T14:24:31;3.80;;;2.80;;
4313;SDS011;2170;48.794;9.182;2023-07-31T14:27:08;3.20;;;2.80;;
4313;SDS011;2170;48.794;9.182;2023-07-31T14:29:43;3.07;;;2.77;;
4313;SDS011;2170;48.794;9.182;2023-07-31T14:32:30;3.53;;;2.87;;
4313;SDS011;2170;48.794;9.182;2023-07-31T14:35:21;2.97;;;2.70;;
4313;SDS011;2170;48.794;9.182;2023-07-31T14:38:15;3.50;;;3.10;;
4313;SDS011;2170;48.794;9.182;2023-07-31T14:41:07;3.23;;;2.93;;
4313;SDS011;2170;48.794;9.182;2023-07-31T14:44:35;3.93;;;2.87;;
4313;SDS011;2170;48.794;9.182;2023-07-31T15:02:07;4.10;;;3.10;;
4313;SDS011;2170;48.794;9.182;2023-07-31T15:05:01;3.80;;;2.80;;
4313;SDS011;2170;48.794;9.182;2023-07-31T15:07:55;2.90;;;2.70;;
4313;SDS011;2170;48.794;9.182;2023-07-31T15:10:37;4.37;;;3.97;;
4313;SDS011;2170;48.794;9.182;2023-07-31T15:13:27;4.30;;;3.17;;
4313;SDS011;2170;48.794;9.182;2023-07-31T15:16:09;3.40;;;2.90;;
4313;SDS011;2170;48.794;9.182;2023-07-31T15:18:53;3.80;;;2.80;;
4313;SDS011;2170;48.794;9.182;2023-07-31T15:21:45;4.27;;;2.60;;
4313;SDS011;2170;48.794;9.182;2023-07-31T15:24:41;3.43;;;3.13;;
4313;SDS011;2170;48.794;9.182;2023-07-31T15:27:31;4.20;;;2.80;;
4313;SDS011;2170;48.794;9.182;2023-07-31T15:33:52;3.70;;;3.40;;
4313;SDS011;2170;48.794;9.182;2023-07-31T15:36:41;3.00;;;2.50;;
4313;SDS011;2170;48.794;9.182;2023-07-31T15:39:19;3.47;;;3.10;;
4313;SDS011;2170;48.794;9.182;2023-07-31T15:42:20;4.17;;;3.20;;
4313;SDS011;2170;48.794;9.182;2023-07-31T15:45:00;3.27;;;2.73;;
4313;SDS011;2170;48.794;9.182;2023-07-31T15:47:45;5.30;;;3.53;;
4313;SDS011;2170;48.794;9.182;2023-07-31T15:50:34;3.90;;;3.03;;
4313;SDS011;2170;48.794;9.182;2023-07-31T15:53:11;3.03;;;2.83;;
4313;SDS011;2170;48.794;9.182;2023-07-31T15:56:57;3.67;;;2.80;;
4313;SDS011;2170;48.794;9.182;2023-07-31T15:59:09;5.20;;;2.80;;
4313;SDS011;2170;48.794;9.182;2023-07-31T16:02:20;3.20;;;2.90;;
4313;SDS011;2170;48.794;9.182;2023-07-31T16:05:18;3.93;;;2.90;;
4313;SDS011;2170;48.794;9.182;2023-07-31T16:08:04;3.40;;;2.60;;
4313;SDS011;2170;48.794;9.182;2023-07-31T16:11:24;3.73;;;3.00;;
4313;SDS011;2170;48.794;9.182;2023-07-31T16:14:18;3.00;;;2.80;;
4313;SDS011;2170;48.794;9.182;2023-07-31T16:17:08;4.77;;;2.83;;
4313;SDS011;2170;48.794;9.182;2023-07-31T16:19:44;3.70;;;2.93;;
4313;SDS011;2170;48.794;9.182;2023-07-31T16:22:34;2.67;;;2.47;;
4313;SDS011;2170;48.794;9.182;2023-07-31T16:25:27;3.00;;;2.70;;
4313;SDS011;2170;48.794;9.182;2023-07-31T16:28:08;4.50;;;3.10;;
4313;SDS011;2170;48.794;9.182;2023-07-31T16:31:01;3.20;;;2.90;;
4313;SDS011;2170;48.794;9.182;2023-07-31T16:33:37;2.90;;;2.70;;
4313;SDS011;2170;48.794;9.182;2023-07-31T16:36:29;4.23;;;3.20;;
4313;SDS011;2170;48.794;9.182;2023-07-31T16:39:25;5.20;;;3.10;;
4313;SDS011;2170;48.794;9.182;2023-07-31T16:42:18;3.07;;;2.77;;
4313;SDS011;2170;48.794;9.182;2023-07-31T16:45:14;4.30;;;3.27;;
4313;SDS011;2170;48.794;9.182;2023-07-31T16:48:04;3.63;;;2.90;;
4313;SDS011;2170;48.794;9.182;2023-07-31T16:50:58;3.20;;;2.70;;
4313;SDS011;2170;48.794;9.182;2023-07-31T16:53:31;3.20;;;2.90;;
4313;SDS011;2170;48.794;9.182;2023-07-31T16:56:25;3.77;;;2.60;;
4313;SDS011;2170;48.794;9.182;2023-07-31T16:59:09;3.10;;;2.73;;
4313;SDS011;2170;48.794;9.182;2023-07-31T17:01:50;3.30;;;3.00;;
4313;SDS011;2170;48.794;9.182;2023-07-31T17:04:46;4.33;;;3.47;;
4313;SDS011;2170;48.794;9.182;2023-07-31T17:10:46;4.33;;;3.07;;
4313;SDS011;2170;48.794;9.182;2023-07-31T17:13:48;3.40;;;3.10;;
4313;SDS011;2170;48.794;9.182;2023-07-31T17:16:48;3.57;;;2.50;;
4313;SDS011;2170;48.794;9.182;2023-07-31T17:19:36;3.20;;;2.90;;
4313;SDS011;2170;48.794;9.182;2023-07-31T17:22:42;3.40;;;3.10;;
4313;SDS011;2170;48.794;9.182;2023-07-31T17:25:50;4.60;;;3.53;;
4313;SDS011;2170;48.794;9.182;2023-07-31T17:28:53;4.00;;;3.60;;
4313;SDS011;2170;48.794;9.182;2023-07-31T17:34:54;6.23;;;3.20;;
4313;SDS011;2170;48.794;9.182;2023-07-31T17:37:29;4.57;;;2.90;;
4313;SDS011;2170;48.794;9.182;2023-07-31T17:39:56;3.90;;;3.30;;
4313;SDS011;2170;48.794;9.182;2023-07-31T17:42:45;3.97;;;3.10;;
4313;SDS011;2170;48.794;9.182;2023-07-31T17:45:41;4.87;;;3.33;;
4313;SDS011;2170;48.794;9.182;2023-07-31T17:48:23;3.20;;;2.90;;
4313;SDS011;2170;48.794;9.182;2023-07-31T17:51:00;3.80;;;2.80;;
4313;SDS011;2170;48.794;9.182;2023-07-31T17:53:31;3.93;;;3.00;;
4313;SDS011;2170;48.794;9.182;2023-07-31T17:56:24;4.33;;;3.40;;
4313;SDS011;2170;48.794;9.182;2023-07-31T17:59:23;5.67;;;3.43;;
4313;SDS011;2170;48.794;9.182;2023-07-31T18:02:30;3.93;;;3.53;;
4313;SDS011;2170;48.794;9.182;2023-07-31T18:05:07;6.53;;;3.50;;
4313;SDS011;2170;48.794;9.182;2023-07-31T18:08:01;3.10;;;2.87;;
4313;SDS011;2170;48.794;9.182;2023-07-31T18:10:54;4.13;;;3.07;;
4313;SDS011;2170;48.794;9.182;2023-07-31T18:14:00;5.57;;;4.17;;
4313;SDS011;2170;48.794;9.182;2023-07-31T18:20:09;5.20;;;3.07;;
4313;SDS011;2170;48.794;9.182;2023-07-31T18:23:21;4.53;;;3.37;;
4313;SDS011;2170;48.794;9.182;2023-07-31T18:26:06;5.07;;;4.30;;
4313;SDS011;2170;48.794;9.182;2023-07-31T18:28:59;4.10;;;3.67;;
4313;SDS011;2170;48.794;9.182;2023-07-31T18:31:53;3.93;;;3.53;;
4313;SDS011;2170;48.794;9.182;2023-07-31T18:34:50;4.47;;;3.33;;
4313;SDS011;2170;48.794;9.182;2023-07-31T18:37:52;3.40;;;2.90;;
4313;SDS011;2170;48.794;9.182;2023-07-31T18:40:33;3.47;;;3.17;;
4313;SDS011;2170;48.794;9.182;2023-07-31T18:43:43;4.70;;;3.50;;
4313;SDS011;2170;48.794;9.182;2023-07-31T18:50:09;4.10;;;3.70;;
4313;SDS011;2170;48.794;9.182;2023-07-31T18:56:35;4.70;;;4.20;;
4313;SDS011;2170;48.794;9.182;2023-07-31T18:59:40;4.10;;;3.70;;
4313;SDS011;2170;48.794;9.182;2023-07-31T19:02:27;4.90;;;4.27;;
4313;SDS011;2170;48.794;9.182;2023-07-31T19:08:26;6.03;;;3.97;;
4313;SDS011;2170;48.794;9.182;2023-07-31T19:11:10;4.70;;;4.03;;
4313;SDS011;2170;48.794;9.182;2023-07-31T19:14:13;5.13;;;4.10;;
4313;SDS011;2170;48.794;9.182;2023-07-31T19:17:24;6.73;;;4.10;;
4313;SDS011;2170;48.794;9.182;2023-07-31T19:20:15;5.37;;;4.27;;
4313;SDS011;2170;48.794;9.182;2023-07-31T19:23:33;4.53;;;4.13;;
4313;SDS011;2170;48.794;9.182;2023-07-31T19:26:19;3.90;;;3.50;;
4313;SDS011;2170;48.794;9.182;2023-07-31T19:29:24;5.70;;;4.10;;
4313;SDS011;2170;48.794;9.182;2023-07-31T19:32:39;6.00;;;4.30;;
4313;SDS011;2170;48.794;9.182;2023-07-31T19:35:52;9.27;;;4.30;;
4313;SDS011;2170;48.794;9.182;2023-07-31T19:38:46;4.40;;;3.57;;
4313;SDS011;2170;48.794;9.182;2023-07-31T19:41:42;6.27;;;4.70;;
4313;SDS011;2170;48.794;9.182;2023-07-31T19:44:57;4.13;;;3.70;;
4313;SDS011;2170;48.794;9.182;2023-07-31T19:48:10;5.00;;;4.57;;
4313;SDS011;2170;48.794;9.182;2023-07-31T19:51:03;6.77;;;4.37;;
4313;SDS011;2170;48.794;9.182;2023-07-31T19:54:04;3.87;;;3.57;;
4313;SDS011;2170;48.794;9.182;2023-07-31T20:40:38;5.00;;;4.00;;
4313;SDS011;2170;48.794;9.182;2023-07-31T20:43:42;5.13;;;4.63;;
4313;SDS011;2170;48.794;9.182;2023-07-31T20:47:07;5.03;;;4.53;;
4313;SDS011;2170;48.794;9.182;2023-07-31T20:50:13;5.00;;;4.60;;
4313;SDS011;2170;48.794;9.182;2023-07-31T20:57:50;5.80;;;4.97;;
4313;SDS011;2170;48.794;9.182;2023-07-31T21:00:56;6.03;;;4.67;;
4313;SDS011;2170;48.794;9.182;2023-07-31T21:04:07;6.00;;;4.60;;
4313;SDS011;2170;48.794;9.182;2023-07-31T21:07:18;8.30;;;4.47;;
4313;SDS011;2170;48.794;9.182;2023-07-31T21:16:56;5.37;;;4.87;;
4313;SDS011;2170;48.794;9.182;2023-07-31T21:19:46;5.23;;;4.70;;
4313;SDS011;2170;48.794;9.182;2023-07-31T21:22:26;5.50;;;4.60;;
4313;SDS011;2170;48.794;9.182;2023-07-31T21:25:05;5.43;;;4.60;;
4313;SDS011;2170;48.794;9.182;2023-07-31T21:27:42;7.43;;;6.13;;
4313;SDS011;2170;48.794;9.182;2023-07-31T21:30:43;6.23;;;4.90;;
4313;SDS011;2170;48.794;9.182;2023-07-31T21:33:53;4.60;;;4.20;;
4313;SDS011;2170;48.794;9.182;2023-07-31T21:36:55;6.17;;;4.80;;
4313;SDS011;2170;48.794;9.182;2023-07-31T21:42:39;6.67;;;5.03;;
4313;SDS011;2170;48.794;9.182;2023-07-31T21:45:28;6.87;;;4.87;;
4313;SDS011;2170;48.794;9.182;2023-07-31T21:48:23;6.90;;;4.90;;
4313;SDS011;2170;48.794;9.182;2023-07-31T21:52:01;6.30;;;5.37;;
4313;SDS011;2170;48.794;9.182;2023-07-31T21:58:24;8.23;;;4.47;;
4313;SDS011;2170;48.794;9.182;2023-07-31T22:01:45;11.70;;;10.13;;
4313;SDS011;2170;48.794;9.182;2023-07-31T22:05:02;5.30;;;4.80;;
4313;SDS011;2170;48.794;9.182;2023-07-31T22:07:42;5.10;;;4.40;;
4313;SDS011;2170;48.794;9.182;2023-07-31T22:13:25;6.10;;;3.80;;
4313;SDS011;2170;48.794;9.182;2023-07-31T22:16:15;6.50;;;4.50;;
4313;SDS011;2170;48.794;9.182;2023-07-31T22:19:10;4.80;;;4.30;;
4313;SDS011;2170;48.794;9.182;2023-07-31T22:25:19;5.00;;;4.30;;
4313;SDS011;2170;48.794;9.182;2023-07-31T22:28:17;5.00;;;4.20;;
4313;SDS011;2170;48.794;9.182;2023-07-31T22:31:04;5.30;;;4.10;;
4313;SDS011;2170;48.794;9.182;2023-07-31T22:33:45;5.10;;;4.17;;
4313;SDS011;2170;48.794;9.182;2023-07-31T22:36:39;4.90;;;4.40;;
4313;SDS011;2170;48.794;9.182;2023-07-31T22:40:32;5.90;;;5.27;;
4313;SDS011;2170;48.794;9.182;2023-07-31T22:42:57;4.90;;;4.27;;
4313;SDS011;2170;48.794;9.182;2023-07-31T22:45:38;7.63;;;3.90;;
4313;SDS011;2170;48.794;9.182;2023-07-31T22:48:28;4.23;;;3.80;;
4313;SDS011;2170;48.794;9.182;2023-07-31T22:51:28;4.47;;;4.07;;
4313;SDS011;2170;48.794;9.182;2023-07-31T22:54:20;5.00;;;4.17;;
4313;SDS011;2170;48.794;9.182;2023-07-31T22:57:33;6.57;;;4.10;;
4313;SDS011;2170;48.794;9.182;2023-07-31T23:07:42;4.90;;;3.40;;
4313;SDS011;2170;48.794;9.182;2023-07-31T23:11:14;5.67;;;4.80;;
4313;SDS011;2170;48.794;9.182;2023-07-31T23:17:44;5.67;;;4.17;;
4313;SDS011;2170;48.794;9.182;2023-07-31T23:25:13;4.80;;;4.30;;
4313;SDS011;2170;48.794;9.182;2023-07-31T23:31:56;4.70;;;3.90;;
4313;SDS011;2170;48.794;9.182;2023-07-31T23:34:47;5.10;;;4.37;;
4313;SDS011;2170;48.794;9.182;2023-07-31T23:41:01;5.97;;;3.70;;
4313;SDS011;2170;48.794;9.182;2023-07-31T23:44:06;4.73;;;3.83;;
4313;SDS011;2170;48.794;9.182;2023-07-31T23:47:10;4.70;;;4.20;;
4313;SDS011;2170;48.794;9.182;2023-07-31T23:50:16;4.37;;;3.70;;
4313;SDS011;2170;48.794;9.182;2023-07-31T23:53:10;4.40;;;4.00;;
4313;SDS011;2170;48.794;9.182;2023-07-31T23:56:13;4.73;;;4.20;;